King City, MO

8:01 AM CDT on July 29, 2014 (GMT -0500)
Lamoni Municipal (KLWD) Elev 1132 ft | 40.63 °N, 93.90 °W | Change Station

Current weather conditions updated 8 minutes ago

Clear
Clear
63 °F
Feels Like 63 °F
N
4
Wind Variable Wind from NW

Today is forecast to be nearly the same temperature as yesterday.

Today
High -- | Low -- °F
--% Chance of Precip.
Yesterday
High -- | Low -- °F
Precip. -- in
6:13 AM 8:34 PM
Waxing Crescent, 6% visible
Pressure 30.17 in
Visibility 10.0 miles
Clouds Clear
Dew Point 58 °F
Humidity 84%
Rainfall 0.00 in
Snow Depth Not available.
UV 1 out of 12
Pollen 6.60 out of 12
Air Quality Not available.
Flu Activity Not available.
METAR KLWD 291253Z AUTO 31003KT 10SM CLR 17/14 A3018 RMK AO2 SLP216 T01720144

More Conditions Fewer Conditions

Pressure 30.17 in
Visibility 10.0 miles
Clouds Clear
Dew Point 58 °F
Humidity 84%
Rainfall 0.00 in
Snow Depth Not available.
UV 1 out of 12
Pollen 6.60 out of 12
Air Quality Not available.
Flu Activity Not available.
METAR KLWD 291253Z AUTO 31003KT 10SM CLR 17/14 A3018 RMK AO2 SLP216 T01720144

More Conditions Fewer Conditions

10-Day Weather Forecast

Almanac

Astronomy

Jul. 29, 2014 Rise Set
Actual Time 6:13 AM CDT 8:34 PM CDT
Civil Twilight 5:42 AM CDT 9:05 PM CDT
Nautical Twilight 5:05 AM CDT 9:43 PM CDT
Astronomical Twilight 4:23 AM CDT 10:24 PM CDT
Moon 8:50 AM CDT 9:47 PM CDT
Length of Visible Light 15h 22m
Length of Day
14h 21m
Tomorrow will be 1m 55s shorter.
Waxing Crescent, 6% of the Moon is Illuminated
Today
Waxing Crescent
Aug 3
First Quarter
Aug 10
Full
Aug 17
Last Quarter
Aug 25
New

Today's Extremes

State Highs State Lows

Community

WunderPhotos

Upload Photos

1,738,706 photos uploaded!

Nearby

Snow Depth

Station Depth Elevation
No new snow has been reported.

Earthquake Activity

City Distance Mag. Time & Date
No recent earthquake activity has been reported nearby.
Minimum magnitude displayed is 2.5.

Coastal Water Temperatures

Place Temperature
No Stations Reporting

Nearby Weather Stations

Station Location Temp. Dew Point Humidity Wind Precip. Elev Updated Type
Empire Prairie, Rea, MO 61.7 °F 60 °F 95% NW  at  2.0 mph 0.00 in / hr 1056 ft 7:58 AM CDT Rapid Fire
MAYSVILLE, MO 62.2 °F 56 °F 81% NNW  at  1.6 mph - / hr 971 ft 8:01 AM CDT Normal
Savannah, Savannah, MO 66.0 °F 32 °F 28% NNW  at  2.2 mph 0.00 in / hr 1060 ft 8:01 AM CDT Rapid Fire
East of Savannah, MO, Savannah, MO 64.6 °F 58 °F 78% West  at  3.8 mph - / hr 1145 ft 7:52 AM CDT Normal
Rockwood Village, Cameron, MO 55.4 °F 54 °F 95% ESE  at  0.0 mph - / hr 902 ft 7:46 AM CDT Normal
Bedison, MO 63.7 °F 63 °F 98% ESE  at  0.0 mph 0.00 in / hr 1033 ft 8:00 AM CDT Normal

Show More Stations Show Fewer Stations